• Join FlightAware (Why Join?)
  • Login
  • US Flag 
12:21AM EDT


 

Airport Tracker/Info


-or-


 

Live Flight TrackerFlight Track Log ✈ GJS3710 ✈ 19-May-2013 ✈ KORD - KALB

Flight Track Log - Related Links

Times and Time Zones

All times are in EDT time to prevent confusion due to time zone crossing. See the GJS3710 flight status page for this flight to view local times or setup timezone preferences in your user account.

Time Position Orientation Groundspeed Altitude Reporting Facility
EDT Latitude Longitude Course Direction KTS MPH feet Rate Location/Type
10:40PM 41.9833 -87.8333 86° East 183 211 2,300  Level Chicago TRACON
10:40PM 42.0000 -87.7667 71° East 233 268 3,700 1,980 Climbing Chicago TRACON
10:42PM 42.1579 -87.3763 66° East  Level FlightAware Approximate
10:42PM 42.0169 -87.6028 82° East 292 336 7,400  Level Chicago Center
10:43PM 42.2033 -87.2401 66° East  Level FlightAware Approximate
10:43PM 42.0644 -87.5103 55° Northeast 302 348 9,600  Level Chicago Center
10:44PM 42.2487 -87.1038 66° East  Level FlightAware Approximate
10:44PM 42.1119 -87.4106 57° Northeast 313 360 11,900  Level Chicago Center
10:45PM 42.2686 -86.9596 86° East  Level FlightAware Approximate
10:45PM 42.1622 -87.3061 57° Northeast 328 377 13,700  Level Chicago Center
10:46PM 42.1819 -87.1694 79° East 368 423 14,700 1,260 Climbing Chicago Center
10:47PM 42.2050 -86.9917 80° East 396 456 16,300 1,440 Climbing Chicago Center
10:48PM 42.2253 -86.8369 80° East 414 476 17,700 1,440 Climbing Chicago Center
10:49PM 42.2444 -86.6781 81° East 427 491 19,300 1,500 Climbing Chicago Center
10:50PM 42.2622 -86.5394 80° East 436 502 20,800 1,560 Climbing Chicago Center
10:51PM 42.2825 -86.3806 80° East 432 497 22,500 1,500 Climbing Chicago Center
10:52PM 42.3036 -86.1992 81° East 432 497 23,900 1,260 Climbing Chicago Center
10:53PM 42.3142 -86.0350 85° East 446 513 25,100 1,080 Climbing Chicago Center
10:54PM 42.3117 -85.8697 91° East 446 513 26,200 780 Climbing Chicago Center
10:55PM 42.3103 -85.6986 91° East 457 526 26,800 720 Climbing Chicago Center
10:56PM 42.3078 -85.5222 91° East 469 540 27,700 960 Climbing Chicago Center
10:57PM 42.3058 -85.3461 91° East 472 543 28,800 1,080 Climbing Chicago Center
10:58PM 42.3064 -85.2136 90° East 463 533 29,600 1,080 Climbing Cleveland Center
10:59PM 42.3028 -85.0447 92° East 457 526 30,700 1,140 Climbing Cleveland Center
11:00PM 42.3028 -84.8761 90° East 457 526 31,900 1,140 Climbing Cleveland Center
11:01PM 42.2925 -84.7014 94° East 457 526 33,000 1,140 Climbing Cleveland Center
11:02PM 42.2842 -84.5242 94° East 457 526 34,200 960 Climbing Cleveland Center
11:03PM 42.3003 -84.3594 82° East 440 506 35,000 780 Climbing Cleveland Center
11:04PM 42.3219 -84.2033 79° East 440 506 35,800 660 Climbing Cleveland Center
11:05PM 42.3353 -84.0383 84° East 440 506 36,400 480 Climbing Cleveland Center
11:06PM 42.3506 -83.8733 83° East 440 506 36,800 300 Climbing Cleveland Center
11:07PM 42.3633 -83.7108 84° East 440 506 37,000 60 Climbing Cleveland Center
11:08PM 42.3761 -83.5514 84° East 445 512 37,000  Level Cleveland Center
11:09PM 42.3906 -83.3833 83° East 452 520 37,000  Level Cleveland Center
11:10PM 42.4031 -83.2094 84° East 457 526 37,000  Level Cleveland Center
11:11PM 42.4153 -83.0383 84° East 463 533 37,000  Level Cleveland Center
11:12PM 42.4292 -82.8644 84° East 463 533 37,000  Level Cleveland Center
11:13PM 42.4408 -82.6933 85° East 463 533 37,000  Level Cleveland Center
11:14PM 42.4542 -82.5250 84° East 458 527 37,000  Level Cleveland Center
11:15PM 42.4675 -82.3536 84° East 458 527 37,000  Level Cleveland Center
11:16PM 42.4783 -82.1794 85° East 458 527 37,000  Level Cleveland Center
11:17PM 42.4889 -82.0106 85° East 458 527 37,000  Level Cleveland Center
11:18PM 42.5014 -81.8392 84° East 458 527 37,000  Level Cleveland Center
11:19PM 42.5136 -81.6508 85° East 458 527 37,000  Level Cleveland Center
11:20PM 42.5233 -81.4931 85° East 458 527 37,000  Level Cleveland Center
11:21PM 42.5369 -81.3269 84° East 458 527 37,000  Level Cleveland Center
11:22PM 42.5464 -81.1467 86° East 464 534 37,000  Level Cleveland Center
11:23PM 42.5575 -80.9722 85° East 459 528 37,000  Level Cleveland Center
11:24PM 42.5664 -80.8003 86° East 459 528 37,000  Level Cleveland Center
11:25PM 42.5769 -80.6256 85° East 459 528 37,000  Level Cleveland Center
11:26PM 42.5872 -80.4394 86° East 459 528 37,000  Level Cleveland Center
11:27PM 42.5953 -80.2672 86° East 459 528 37,000  Level Cleveland Center
11:28PM 42.6050 -80.0981 85° East 459 528 37,000  Level Cleveland Center
11:30PM 42.6219 -79.7536 86° East 459 528 37,000  Level Cleveland Center
11:31PM 42.6308 -79.5786 86° East 459 528 37,000  Level Cleveland Center
11:32PM 42.6378 -79.4064 87° East 459 528 37,000  Level Cleveland Center
11:33PM 42.6461 -79.2339 86° East 459 528 37,000  Level Cleveland Center
11:34PM 42.6544 -79.0617 86° East 459 528 37,000  Level Cleveland Center
11:35PM 42.6603 -78.8864 87° East 459 528 37,000  Level Cleveland Center
11:36PM 42.6661 -78.7139 87° East 459 528 37,000 -540 Level Cleveland Center
11:37PM 42.6736 -78.5386 87° East 459 528 36,000 -1,140 Descending Cleveland Center
11:38PM 42.6808 -78.3661 87° East 459 528 34,800 -1,200 Descending Cleveland Center
11:39PM 42.6856 -78.1908 88° East 459 528 33,600 -1,200 Descending Cleveland Center
11:40PM 42.6922 -78.0153 87° East 459 528 32,400 -1,380 Descending Cleveland Center
11:41PM 42.6964 -77.8400 88° East 459 528 30,900 -1,320 Descending Cleveland Center
11:42PM 42.7031 -77.6758 87° East 473 544 29,800 -960 Descending Cleveland Center
11:43PM 42.7067 -77.4947 88° East 480 552 29,000 -240 Descending Cleveland Center
11:45PM 42.7172 -77.0556 88° East 477 549 29,000  Level Boston Center
11:46PM 42.7222 -76.8781 88° East 472 543 29,000  Level Boston Center
11:47PM 42.7250 -76.6972 89° East 472 543 29,000  Level Boston Center
11:48PM 42.7297 -76.5164 88° East 477 549 29,000 -300 Level Boston Center
11:49PM 42.7339 -76.3386 88° East 477 549 28,400 -1,260 Descending Boston Center
11:50PM 42.7350 -76.1747 89° East 477 549 26,500 -1,920 Descending Boston Center
11:51PM 42.7386 -76.0022 88° East 470 541 24,600 -1,920 Descending Boston Center
11:52PM 42.7417 -75.8328 89° East 458 527 22,700 -1,920 Descending Boston Center
11:53PM 42.7444 -75.6689 89° East 452 520 20,800 -1,920 Descending Boston Center
11:54PM 42.7467 -75.5078 89° East 435 501 18,900 -1,800 Descending Boston Center
11:55PM 42.7464 -75.3553 90° East 412 474 17,200 -1,800 Descending Boston Center
11:56PM 42.7483 -75.2025 89° East 405 466 15,300 -1,740 Descending Boston Center
11:57PM 42.7489 -75.0839 90° East 399 459 13,800 -1,740 Descending Boston Center
11:59PM 42.7494 -74.8775 90° East 393 452 11,600 -1,620 Descending Boston Center
11:59PM 42.7494 -74.7842 90° East 375 432 11,000 -600 Descending Boston Center
12:00AM 42.7483 -74.7331 92° East 387 445 11,000  Level Boston Center
12:00AM 42.7481 -74.6425 90° East 368 423 11,000  Level Boston Center
12:01AM 42.7575 -74.5836 78° East 365 420 11,000  Level Boston Center
12:01AM 42.7731 -74.5219 71° East 327 376 11,000  Level Boston Center
12:02AM 42.7822 -74.4797 74° East 328 377 11,000 -540 Level Boston Center
12:02AM 42.7981 -74.4122 72° East 292 336 10,500 -1,440 Descending Boston Center
12:03AM 42.8072 -74.3617 76° East 296 341 9,600 -1,980 Descending Boston Center
12:03AM 42.8183 -74.3139 72° East 295 339 8,700 -1,800 Descending Boston Center
12:04AM 42.8297 -74.2633 73° East 296 341 7,800 -2,340 Descending Boston Center
12:04AM 42.8431 -74.2069 72° East 296 341 6,400 -2,700 Descending Boston Center
12:05AM 42.8544 -74.1450 76° East 296 341 5,100 -2,340 Descending Boston Center
12:05AM 42.8633 -74.1086 72° East 293 337 4,300 -1,500 Descending Boston Center
12:06AM 42.8767 -74.0522 72° East 296 341 3,600 -900 Descending Boston Center
12:06AM 42.8878 -73.9986 74° East 290 334 3,400 -720 Descending Boston Center
12:07AM 42.8989 -73.9422 75° East 281 323 2,900 -1,020 Descending Boston Center
12:07AM 42.9078 -73.9083 70° East 246 283 2,400 -900 Descending Boston Center
12:08AM 42.9125 -73.8575 83° East 247 284 2,000 -420 Descending Boston Center
12:08AM 42.8942 -73.8372 141° Southeast 199 229 2,000  Level Boston Center
12:09AM 42.8714 -73.8111 140° Southeast 180 207 2,000  Level Boston Center
12:09AM 42.8547 -73.8136 186° South 149 171 2,000  Level Boston Center
12:10AM 42.8556 -73.7486 89° East 168 193 2,000 -540 Level Boston Center
12:10AM 42.8194 -73.8100 231° Southwest 126 145 1,500 -900 Descending Boston Center
12:11AM 42.7839 -73.8064 176° South 117 135 800 -720 Descending Boston Center